Time;durP1;ratioP1;P1;durP2;ratioP2;P2;SDS_P1;SDS_P2;PMS_P1;PMS_P2;Temp;Humidity;BMP_temperature;BMP_pressure;BME280_temperature;BME280_humidity;BME280_pressure;Samples;Min_cycle;Max_cycle;Signal;HPM_P1;HPM_P2
2023/06/11 00:00:28;;;;;;;15.33;8.60;;;14.00;99.90;;;;;;4383976;28;660126;-74
2023/06/11 00:03:20;;;;;;;11.60;8.37;;;14.00;99.90;;;;;;4361816;27;659657;-73
2023/06/11 00:06:07;;;;;;;10.83;8.93;;;14.00;99.90;;;;;;4353901;28;660051;-73
2023/06/11 00:08:55;;;;;;;12.53;8.87;;;14.00;99.90;;;;;;4384199;27;658873;-73
2023/06/11 00:11:43;;;;;;;10.57;8.50;;;14.00;99.90;;;;;;4382438;28;660469;-74
2023/06/11 00:14:30;;;;;;;12.63;9.32;;;14.00;99.90;;;;;;4366269;28;659001;-74
2023/06/11 00:17:17;;;;;;;15.13;9.20;;;13.90;99.90;;;;;;4391079;28;658180;-74
2023/06/11 00:20:11;;;;;;;11.07;9.37;;;13.90;99.90;;;;;;4381447;28;658423;-74
2023/06/11 00:22:58;;;;;;;13.67;9.47;;;13.90;99.90;;;;;;4359081;28;658908;-73
2023/06/11 00:25:45;;;;;;;12.80;9.70;;;13.90;99.90;;;;;;4380265;28;658325;-74
2023/06/11 00:28:32;;;;;;;11.87;9.60;;;13.90;99.90;;;;;;4404052;27;658967;-74
2023/06/11 00:31:20;;;;;;;15.07;10.30;;;13.80;99.90;;;;;;4386435;27;658517;-74
2023/06/11 00:34:07;;;;;;;13.17;9.63;;;13.80;99.90;;;;;;4385710;28;659447;-74
2023/06/11 00:36:56;;;;;;;12.97;10.20;;;13.80;99.90;;;;;;4376994;28;658498;-73
2023/06/11 00:39:43;;;;;;;12.17;10.33;;;13.80;99.90;;;;;;4353313;28;660545;-74
2023/06/11 00:42:33;;;;;;;15.90;10.20;;;13.70;99.90;;;;;;4352232;28;659536;-74
2023/06/11 00:45:22;;;;;;;16.77;10.80;;;13.70;99.90;;;;;;4359195;28;660489;-73
2023/06/11 00:48:09;;;;;;;13.87;11.10;;;13.70;99.90;;;;;;4399552;27;659435;-74
2023/06/11 00:50:56;;;;;;;12.07;10.37;;;13.70;99.90;;;;;;4361776;28;659887;-73
2023/06/11 00:53:45;;;;;;;17.63;11.50;;;13.70;99.90;;;;;;4367439;28;659371;-74
2023/06/11 00:56:33;;;;;;;15.83;10.80;;;13.70;99.90;;;;;;4355758;28;659747;-73
2023/06/11 00:59:20;;;;;;;15.33;11.57;;;13.70;99.90;;;;;;4364271;27;659368;-73
2023/06/11 01:02:15;;;;;;;15.60;11.07;;;13.70;99.90;;;;;;4377253;28;661403;-74
2023/06/11 01:05:03;;;;;;;14.60;11.00;;;13.70;99.90;;;;;;4331382;28;659960;-73
2023/06/11 01:07:51;;;;;;;15.67;12.07;;;13.70;99.90;;;;;;4360576;28;660535;-74
2023/06/11 01:10:40;;;;;;;15.47;11.80;;;13.70;99.90;;;;;;4391058;27;660919;-74
2023/06/11 01:13:27;;;;;;;17.40;12.23;;;13.70;99.90;;;;;;4361656;27;661281;-73
2023/06/11 01:16:15;;;;;;;18.80;12.67;;;13.70;99.90;;;;;;4390587;28;660511;-74
2023/06/11 01:19:08;;;;;;;15.93;12.30;;;13.70;99.90;;;;;;4357422;27;660917;-74
2023/06/11 01:21:59;;;;;;;16.80;12.30;;;13.70;99.90;;;;;;4331531;28;660243;-73
2023/06/11 01:24:58;;;;;;;15.93;12.97;;;13.70;99.90;;;;;;4355192;28;659504;-74
2023/06/11 01:28:12;;;;;;;20.80;12.80;;;13.80;99.90;;;;;;4331386;28;659929;-74
2023/06/11 01:31:01;;;;;;;17.10;12.73;;;13.80;99.90;;;;;;4351433;28;660664;-73
2023/06/11 01:33:48;;;;;;;20.23;12.27;;;13.80;99.90;;;;;;4353374;28;660506;-74
2023/06/11 01:36:37;;;;;;;17.75;12.57;;;13.90;99.90;;;;;;4354165;28;660000;-74
2023/06/11 01:39:25;;;;;;;17.17;12.57;;;13.80;99.90;;;;;;4377001;28;659706;-74
2023/06/11 01:42:12;;;;;;;16.17;12.10;;;13.90;99.90;;;;;;4373557;27;661694;-74
2023/06/11 01:45:00;;;;;;;17.30;11.73;;;13.80;99.90;;;;;;4392977;27;659766;-73
2023/06/11 01:47:48;;;;;;;19.20;12.17;;;13.80;99.90;;;;;;4355988;27;661267;-74
2023/06/11 01:50:36;;;;;;;16.53;12.23;;;13.70;99.90;;;;;;4359456;28;660799;-74
2023/06/11 01:53:24;;;;;;;16.87;12.60;;;13.80;99.90;;;;;;4403720;27;660872;-74
2023/06/11 01:56:11;;;;;;;16.23;11.90;;;13.80;99.90;;;;;;4358163;28;659413;-73
2023/06/11 01:58:58;;;;;;;16.73;11.80;;;13.80;99.90;;;;;;4380179;28;660445;-73
2023/06/11 02:01:52;;;;;;;17.33;12.97;;;13.70;99.90;;;;;;4370485;27;659652;-73
2023/06/11 02:04:40;;;;;;;18.47;12.60;;;13.70;99.90;;;;;;4356753;28;660217;-74
2023/06/11 02:07:27;;;;;;;16.87;12.60;;;13.80;99.90;;;;;;4355350;28;660469;-74
2023/06/11 02:10:15;;;;;;;22.07;12.53;;;13.80;99.90;;;;;;4375522;28;659380;-74
2023/06/11 02:13:02;;;;;;;18.10;13.33;;;13.80;99.90;;;;;;4354659;28;660565;-73
2023/06/11 02:15:49;;;;;;;18.07;13.17;;;13.80;99.90;;;;;;4393727;28;659776;-74
2023/06/11 02:18:38;;;;;;;18.90;12.83;;;13.80;99.90;;;;;;4374025;27;660034;-73
2023/06/11 02:21:25;;;;;;;16.23;12.80;;;13.70;99.90;;;;;;4387603;27;660028;-73
2023/06/11 02:24:12;;;;;;;19.07;12.27;;;13.70;99.90;;;;;;4397541;28;659917;-74
2023/06/11 02:26:59;;;;;;;20.23;12.47;;;13.70;99.90;;;;;;4391859;28;659669;-74
2023/06/11 02:29:47;;;;;;;17.97;12.77;;;13.90;99.90;;;;;;4372219;28;659860;-75
2023/06/11 02:32:34;;;;;;;16.27;12.00;;;13.90;99.90;;;;;;4389745;28;659329;-73
2023/06/11 02:35:23;;;;;;;20.07;12.57;;;14.00;99.90;;;;;;4361802;28;660589;-74
2023/06/11 02:38:10;;;;;;;19.03;12.97;;;14.00;99.90;;;;;;4365445;28;660578;-74
2023/06/11 02:40:58;;;;;;;16.57;12.87;;;14.00;99.90;;;;;;4402276;27;660571;-74
2023/06/11 02:43:45;;;;;;;18.88;13.15;;;14.00;99.90;;;;;;4374660;28;660273;-74
2023/06/11 02:46:32;;;;;;;17.50;13.20;;;14.00;99.90;;;;;;4394015;27;660618;-74
2023/06/11 02:49:21;;;;;;;22.87;13.23;;;14.00;99.90;;;;;;4378968;28;659988;-74
2023/06/11 02:52:10;;;;;;;18.10;13.43;;;14.00;99.90;;;;;;4377694;28;659713;-74
2023/06/11 02:54:57;;;;;;;16.07;13.03;;;14.10;99.90;;;;;;4365351;28;660893;-74
2023/06/11 02:57:44;;;;;;;16.90;13.07;;;14.20;99.90;;;;;;4385715;28;660074;-74
2023/06/11 03:00:31;;;;;;;18.63;13.10;;;14.20;99.90;;;;;;4383318;27;660790;-75
2023/06/11 03:03:18;;;;;;;19.63;14.23;;;14.30;99.90;;;;;;4421194;27;660735;-75
2023/06/11 03:06:06;;;;;;;17.50;12.83;;;14.30;99.90;;;;;;4370980;27;660328;-74
2023/06/11 03:08:54;;;;;;;17.97;13.07;;;14.40;99.90;;;;;;4354102;27;659444;-74
2023/06/11 03:11:42;;;;;;;21.33;12.30;;;14.40;99.90;;;;;;4284042;28;660316;-73
2023/06/11 03:14:29;;;;;;;19.73;12.37;;;14.40;99.90;;;;;;4314977;27;659715;-74
2023/06/11 03:17:16;;;;;;;16.07;12.23;;;14.50;99.90;;;;;;4360506;27;660133;-76
2023/06/11 03:20:04;;;;;;;16.60;11.82;;;14.50;99.90;;;;;;4385711;27;660155;-74
2023/06/11 03:22:51;;;;;;;17.87;12.00;;;14.60;99.90;;;;;;4376788;27;659631;-75
2023/06/11 03:25:40;;;;;;;15.90;11.20;;;14.60;99.90;;;;;;4382677;28;660721;-74
2023/06/11 03:28:27;;;;;;;19.17;11.00;;;14.60;99.90;;;;;;4364194;28;660383;-74
2023/06/11 03:31:14;;;;;;;14.07;10.97;;;14.70;99.90;;;;;;4417602;27;659437;-73
2023/06/11 03:34:03;;;;;;;15.47;10.63;;;14.70;99.90;;;;;;4363345;28;659713;-74
2023/06/11 03:36:50;;;;;;;15.23;10.43;;;14.70;99.90;;;;;;4395368;27;660547;-75
2023/06/11 03:39:37;;;;;;;12.03;9.53;;;14.70;99.90;;;;;;4383471;28;660793;-75
2023/06/11 03:42:28;;;;;;;17.20;10.13;;;14.80;99.90;;;;;;4402896;27;658494;-74
2023/06/11 03:45:15;;;;;;;14.13;9.83;;;14.80;99.90;;;;;;4362369;28;660317;-75
2023/06/11 03:48:04;;;;;;;17.60;9.60;;;14.80;99.90;;;;;;4384910;27;659728;-76
2023/06/11 03:50:51;;;;;;;13.77;9.40;;;14.80;99.90;;;;;;4389443;27;659487;-75
2023/06/11 03:53:38;;;;;;;11.77;9.20;;;14.80;99.90;;;;;;4396158;28;659044;-75
2023/06/11 03:56:26;;;;;;;11.23;8.50;;;14.90;99.90;;;;;;4356300;28;658205;-75
2023/06/11 03:59:15;;;;;;;11.37;8.23;;;14.90;99.90;;;;;;4377312;28;659677;-75
2023/06/11 04:02:02;;;;;;;10.77;8.53;;;14.90;99.90;;;;;;4356980;28;660160;-75
2023/06/11 04:04:50;;;;;;;12.97;8.33;;;15.00;99.90;;;;;;4384457;28;658473;-75
2023/06/11 04:07:39;;;;;;;13.10;8.63;;;15.00;99.90;;;;;;4383418;27;659616;-75
2023/06/11 04:10:26;;;;;;;10.90;7.60;;;15.10;99.90;;;;;;4372491;28;659523;-75
2023/06/11 04:13:13;;;;;;;10.37;8.27;;;15.10;99.90;;;;;;4391939;27;659154;-75
2023/06/11 04:16:02;;;;;;;9.53;8.10;;;15.20;99.90;;;;;;4358488;28;658366;-75
2023/06/11 04:18:49;;;;;;;10.27;8.23;;;15.30;99.90;;;;;;4402445;27;657468;-75
2023/06/11 04:21:37;;;;;;;13.40;8.37;;;15.30;99.90;;;;;;4397855;27;658554;-76
2023/06/11 04:24:24;;;;;;;11.67;7.87;;;15.50;99.90;;;;;;4381991;28;659494;-75
2023/06/11 04:27:12;;;;;;;11.37;8.10;;;15.50;99.90;;;;;;4365550;27;658390;-74
2023/06/11 04:30:00;;;;;;;13.47;7.97;;;15.60;99.90;;;;;;4407221;27;659178;-74
2023/06/11 04:32:54;;;;;;;9.80;7.87;;;15.60;99.90;;;;;;4363331;27;659049;-75
2023/06/11 04:35:43;;;;;;;13.00;8.10;;;15.60;99.90;;;;;;4333060;28;658675;-75
2023/06/11 04:38:30;;;;;;;10.07;7.73;;;15.70;99.90;;;;;;4382900;28;658970;-74
2023/06/11 04:41:18;;;;;;;11.40;8.40;;;15.80;99.90;;;;;;4390360;27;659955;-75
2023/06/11 04:44:05;;;;;;;13.10;8.10;;;15.80;99.90;;;;;;4370278;28;658509;-74
2023/06/11 04:46:57;;;;;;;12.27;8.60;;;15.80;99.90;;;;;;4405842;27;660077;-75
2023/06/11 04:49:51;;;;;;;11.47;8.80;;;15.80;99.90;;;;;;4358168;28;658597;-75
2023/06/11 04:52:38;;;;;;;11.33;8.20;;;15.90;99.90;;;;;;4357930;28;659385;-75
2023/06/11 04:55:26;;;;;;;12.60;8.43;;;16.10;99.90;;;;;;4386643;27;658498;-75
2023/06/11 04:58:13;;;;;;;11.30;8.50;;;15.90;99.90;;;;;;4383232;28;659106;-75
2023/06/11 05:01:00;;;;;;;14.30;8.47;;;15.90;99.90;;;;;;4364065;27;659266;-74
2023/06/11 05:03:48;;;;;;;9.77;8.17;;;16.00;99.90;;;;;;4384051;28;660412;-74
2023/06/11 05:06:36;;;;;;;12.87;8.60;;;16.00;99.90;;;;;;4375399;28;657398;-74
2023/06/11 05:09:24;;;;;;;16.43;8.33;;;15.90;99.90;;;;;;4381329;28;659754;-74
2023/06/11 05:12:11;;;;;;;10.63;7.93;;;15.90;99.90;;;;;;4388077;27;658875;-74
2023/06/11 05:14:59;;;;;;;15.97;9.60;;;16.00;99.90;;;;;;4381309;28;659002;-74
2023/06/11 05:17:46;;;;;;;13.80;9.13;;;16.00;99.90;;;;;;4362780;27;659364;-74
2023/06/11 05:20:33;;;;;;;13.00;10.00;;;16.00;99.90;;;;;;4390485;27;659476;-75
2023/06/11 05:23:28;;;;;;;13.20;9.73;;;15.90;99.90;;;;;;4367518;27;660025;-75
2023/06/11 05:26:18;;;;;;;12.57;9.57;;;15.90;99.90;;;;;;4353461;27;659273;-75
2023/06/11 05:29:06;;;;;;;13.07;8.90;;;16.00;99.90;;;;;;4360850;28;658852;-74
2023/06/11 05:31:56;;;;;;;13.07;9.00;;;16.10;99.90;;;;;;4388829;27;658322;-77
2023/06/11 05:34:43;;;;;;;13.53;9.57;;;16.30;99.90;;;;;;4362234;27;659246;-75
2023/06/11 05:37:31;;;;;;;12.90;8.83;;;16.30;99.90;;;;;;4360816;28;659354;-76
2023/06/11 05:40:19;;;;;;;10.40;8.70;;;16.40;99.90;;;;;;4402523;27;659106;-74
2023/06/11 05:43:07;;;;;;;15.03;9.30;;;16.40;99.90;;;;;;4368502;27;658554;-75
2023/06/11 05:45:55;;;;;;;11.37;8.73;;;16.60;99.90;;;;;;4382821;28;659169;-74
2023/06/11 05:48:43;;;;;;;11.63;8.57;;;16.70;99.90;;;;;;4373394;27;658900;-75
2023/06/11 05:51:30;;;;;;;12.60;7.97;;;16.90;99.90;;;;;;4395926;27;658258;-73
2023/06/11 05:54:17;;;;;;;13.67;8.43;;;17.10;99.90;;;;;;4380713;28;659122;-74
2023/06/11 05:57:08;;;;;;;13.33;7.93;;;17.30;99.90;;;;;;4408924;27;658499;-75
2023/06/11 05:59:55;;;;;;;11.17;7.60;;;17.40;99.90;;;;;;4370705;27;658512;-73
2023/06/11 06:02:42;;;;;;;11.83;7.97;;;17.50;99.90;;;;;;4401608;27;659182;-75
2023/06/11 06:05:30;;;;;;;12.00;7.90;;;17.70;99.90;;;;;;4381395;28;658569;-73
2023/06/11 06:08:17;;;;;;;13.40;7.53;;;17.90;99.90;;;;;;4394157;28;659227;-74
2023/06/11 06:11:05;;;;;;;9.03;7.37;;;18.00;99.90;;;;;;4387373;28;658825;-74
2023/06/11 06:13:54;;;;;;;12.17;7.57;;;18.10;99.90;;;;;;4391931;28;658009;-74
2023/06/11 06:16:41;;;;;;;11.07;7.97;;;18.20;99.90;;;;;;4365749;28;658928;-74
2023/06/11 06:19:28;;;;;;;10.67;7.07;;;18.10;99.90;;;;;;4395114;28;658487;-75
2023/06/11 06:22:18;;;;;;;11.23;7.67;;;18.40;99.90;;;;;;4373957;27;658934;-74
2023/06/11 06:25:06;;;;;;;14.57;8.00;;;18.50;99.90;;;;;;4379270;28;658467;-74
2023/06/11 06:27:53;;;;;;;11.37;7.43;;;18.60;99.90;;;;;;4380319;28;658950;-75
2023/06/11 06:30:42;;;;;;;11.10;7.47;;;18.60;99.90;;;;;;4367772;28;658959;-74
2023/06/11 06:33:34;;;;;;;8.47;6.50;;;18.70;99.90;;;;;;4384758;27;659012;-74
2023/06/11 06:36:21;;;;;;;10.47;6.50;;;19.10;99.90;;;;;;4365577;28;657720;-75
2023/06/11 06:39:09;;;;;;;8.80;6.17;;;19.30;99.90;;;;;;4381476;28;658929;-76
2023/06/11 06:41:56;;;;;;;8.43;6.00;;;19.00;99.90;;;;;;4369504;27;657954;-74
2023/06/11 06:44:43;;;;;;;12.43;6.73;;;18.80;99.90;;;;;;4382969;28;658699;-74
2023/06/11 06:47:32;;;;;;;12.67;6.23;;;18.80;99.90;;;;;;4397810;27;659083;-73
2023/06/11 06:50:19;;;;;;;10.67;5.83;;;19.10;99.90;;;;;;4387809;27;658360;-73
2023/06/11 06:53:06;;;;;;;7.27;5.70;;;19.40;99.90;;;;;;4356303;27;658880;-74
2023/06/11 06:55:53;;;;;;;7.60;5.90;;;19.70;99.90;;;;;;4381244;27;658416;-73
2023/06/11 06:58:40;;;;;;;9.00;5.97;;;19.60;99.90;;;;;;4376110;27;657507;-74
2023/06/11 07:01:28;;;;;;;11.17;6.07;;;19.60;99.90;;;;;;4380173;28;657878;-73
2023/06/11 07:04:17;;;;;;;9.07;6.33;;;19.30;99.90;;;;;;4378459;28;659292;-72
2023/06/11 07:07:04;;;;;;;9.93;6.23;;;19.20;99.90;;;;;;4379575;27;657800;-73
2023/06/11 07:09:51;;;;;;;7.73;6.13;;;19.20;99.90;;;;;;4358700;28;657523;-73
2023/06/11 07:12:38;;;;;;;11.00;6.83;;;19.40;99.90;;;;;;4374805;28;658640;-73
2023/06/11 07:15:26;;;;;;;10.10;7.00;;;19.40;99.90;;;;;;4360955;28;658680;-72
2023/06/11 07:18:13;;;;;;;10.33;5.40;;;19.20;99.90;;;;;;4386550;28;659133;-73
2023/06/11 07:21:02;;;;;;;10.40;5.93;;;19.20;99.90;;;;;;4363540;28;658765;-72
2023/06/11 07:23:49;;;;;;;6.97;5.63;;;19.40;99.90;;;;;;4370941;28;658708;-73
2023/06/11 07:26:36;;;;;;;9.20;5.63;;;19.70;99.90;;;;;;4363723;28;658140;-73
2023/06/11 07:29:25;;;;;;;9.93;5.83;;;20.20;99.90;;;;;;4389288;28;658211;-73
2023/06/11 07:32:12;;;;;;;10.47;6.27;;;20.30;99.90;;;;;;4368617;28;659232;-73
2023/06/11 07:34:59;;;;;;;7.87;5.70;;;20.30;99.90;;;;;;4397902;27;658599;-73
2023/06/11 07:37:48;;;;;;;9.50;5.73;;;20.40;99.90;;;;;;4355389;27;657763;-73
2023/06/11 07:40:35;;;;;;;7.83;5.10;;;20.50;99.90;;;;;;4356152;28;658653;-72
2023/06/11 07:43:23;;;;;;;14.17;5.50;;;20.60;99.90;;;;;;4399152;27;658476;-73
2023/06/11 07:46:10;;;;;;;10.37;5.67;;;20.20;99.90;;;;;;4375907;28;659260;-72
2023/06/11 07:48:57;;;;;;;6.57;5.57;;;20.10;99.90;;;;;;4388446;27;660030;-73
2023/06/11 07:51:46;;;;;;;6.60;5.13;;;20.40;99.90;;;;;;4375701;28;657393;-72
2023/06/11 07:54:34;;;;;;;8.33;5.27;;;20.50;99.90;;;;;;4380044;28;658808;-72
2023/06/11 07:57:22;;;;;;;13.67;6.00;;;20.90;99.90;;;;;;4392181;27;658299;-73
2023/06/11 08:00:12;;;;;;;8.33;5.20;;;21.10;99.90;;;;;;4389339;28;658934;-73
2023/06/11 08:02:59;;;;;;;7.10;4.60;;;21.10;99.90;;;;;;4372735;28;658349;-73
2023/06/11 08:05:46;;;;;;;11.77;5.13;;;21.10;99.90;;;;;;4387229;27;657441;-73
2023/06/11 08:08:34;;;;;;;15.63;5.70;;;20.60;99.90;;;;;;4398684;27;658283;-73
2023/06/11 08:11:22;;;;;;;7.13;5.20;;;20.40;99.90;;;;;;4365637;28;658945;-72
2023/06/11 08:14:09;;;;;;;10.87;4.83;;;20.50;99.90;;;;;;4385073;27;657735;-73
2023/06/11 08:16:57;;;;;;;6.93;5.20;;;20.80;99.90;;;;;;4360341;27;658850;-73
2023/06/11 08:19:44;;;;;;;9.77;5.37;;;20.50;99.90;;;;;;4378576;28;657861;-73
2023/06/11 08:22:32;;;;;;;8.43;5.63;;;20.30;99.90;;;;;;4368598;28;657515;-73
2023/06/11 08:25:19;;;;;;;9.57;5.00;;;20.20;99.90;;;;;;4380155;28;658116;-73
2023/06/11 08:28:08;;;;;;;8.57;5.30;;;20.70;99.90;;;;;;4348889;28;657903;-73
2023/06/11 08:30:56;;;;;;;7.40;5.10;;;20.80;99.90;;;;;;4345323;28;658294;-71
2023/06/11 08:33:43;;;;;;;8.80;5.10;;;20.80;99.90;;;;;;4362103;28;657364;-72
2023/06/11 08:36:31;;;;;;;7.33;5.13;;;20.70;99.90;;;;;;4343822;28;657681;-72
2023/06/11 08:39:18;;;;;;;10.67;4.93;;;20.50;99.90;;;;;;4361529;28;656926;-72
2023/06/11 08:42:06;;;;;;;7.87;5.07;;;20.70;99.90;;;;;;4346179;28;659002;-72
2023/06/11 08:44:54;;;;;;;8.43;5.07;;;20.70;99.90;;;;;;4365370;28;658102;-73
2023/06/11 08:47:43;;;;;;;10.73;5.10;;;20.50;99.90;;;;;;4333653;28;658038;-73
2023/06/11 08:50:31;;;;;;;8.53;5.00;;;20.40;99.90;;;;;;4339987;28;658969;-73
2023/06/11 08:53:18;;;;;;;10.65;5.15;;;20.50;99.90;;;;;;4354567;28;658278;-73
2023/06/11 08:56:06;;;;;;;9.97;4.77;;;20.70;99.90;;;;;;4338833;28;658863;-72
2023/06/11 08:58:53;;;;;;;8.37;5.03;;;20.90;99.90;;;;;;4360489;28;658211;-71
2023/06/11 09:01:42;;;;;;;6.97;5.13;;;20.70;99.90;;;;;;4370898;28;657228;-67
2023/06/11 09:04:29;;;;;;;9.90;4.83;;;20.80;99.90;;;;;;4375810;28;658226;-71
2023/06/11 09:07:23;;;;;;;11.67;5.10;;;21.30;99.90;;;;;;4357085;28;658358;-71
2023/06/11 09:10:11;;;;;;;10.57;4.83;;;21.90;99.90;;;;;;4341147;28;658338;-71
2023/06/11 09:12:59;;;;;;;8.00;4.73;;;22.40;99.90;;;;;;4354684;28;659256;-71
2023/06/11 09:15:49;;;;;;;8.27;4.73;;;22.80;99.90;;;;;;4287077;28;658247;-70
2023/06/11 09:18:38;;;;;;;5.10;3.93;;;23.10;99.90;;;;;;4248162;28;657599;-71
2023/06/11 09:21:25;;;;;;;5.20;4.20;;;23.60;99.90;;;;;;4199742;28;657658;-70
2023/06/11 09:24:13;;;;;;;6.97;4.47;;;23.90;99.90;;;;;;4381562;27;658274;-70
2023/06/11 09:27:00;;;;;;;7.88;4.20;;;24.40;99.90;;;;;;4355118;27;657831;-70
2023/06/11 09:29:47;;;;;;;9.90;4.30;;;24.70;99.90;;;;;;4406325;27;658562;-71
2023/06/11 09:32:38;;;;;;;7.68;4.57;;;24.60;96.60;;;;;;4383093;27;657678;-70
2023/06/11 09:35:27;;;;;;;6.65;4.35;;;23.80;95.40;;;;;;4317436;28;657842;-71
2023/06/11 09:38:15;;;;;;;5.75;4.25;;;23.70;96.70;;;;;;4407854;27;657656;-71
2023/06/11 09:41:05;;;;;;;10.73;4.68;;;23.90;99.60;;;;;;4347133;27;657754;-71
2023/06/11 09:43:53;;;;;;;8.70;4.25;;;23.90;96.70;;;;;;4379743;27;659390;-71
2023/06/11 09:46:40;;;;;;;8.40;4.60;;;23.80;99.90;;;;;;4373057;28;658591;-71
2023/06/11 09:49:27;;;;;;;6.32;3.72;;;24.10;98.50;;;;;;4381184;27;658539;-71
2023/06/11 09:52:17;;;;;;;7.93;4.18;;;23.80;97.90;;;;;;4374442;27;658661;-71
2023/06/11 09:55:05;;;;;;;10.75;4.50;;;24.10;96.60;;;;;;4412923;27;658330;-71
2023/06/11 09:57:52;;;;;;;8.07;4.35;;;24.40;95.20;;;;;;4358180;28;658947;-71
2023/06/11 10:00:40;;;;;;;8.73;4.13;;;24.70;93.40;;;;;;4386640;27;657726;-71
2023/06/11 10:03:28;;;;;;;7.97;4.18;;;24.90;92.60;;;;;;4421980;27;657809;-71
2023/06/11 10:06:18;;;;;;;7.97;3.95;;;24.80;92.40;;;;;;4381576;27;657797;-71
2023/06/11 10:09:10;;;;;;;5.95;4.10;;;24.80;91.80;;;;;;4382374;27;658000;-71
2023/06/11 10:11:57;;;;;;;10.57;4.10;;;24.30;92.90;;;;;;4368758;27;658013;-71
2023/06/11 10:14:50;;;;;;;8.13;4.35;;;24.20;91.30;;;;;;4406608;27;658920;-71
2023/06/11 10:17:37;;;;;;;7.32;3.90;;;23.60;92.20;;;;;;4392197;27;657560;-71
2023/06/11 10:20:27;;;;;;;6.85;4.38;;;23.40;93.60;;;;;;4385027;28;657967;-71
2023/06/11 10:23:14;;;;;;;7.05;3.88;;;23.40;96.70;;;;;;4402732;27;657394;-71
2023/06/11 10:26:03;;;;;;;7.22;4.30;;;23.90;95.10;;;;;;4374860;27;657531;-71
2023/06/11 10:28:51;;;;;;;6.28;4.15;;;24.50;92.80;;;;;;4418348;27;658220;-71
2023/06/11 10:31:41;;;;;;;6.00;4.25;;;24.70;89.90;;;;;;4379103;28;658149;-72
2023/06/11 10:34:38;;;;;;;6.70;3.90;;;25.00;90.50;;;;;;4373829;27;658111;-70
2023/06/11 10:37:31;;;;;;;6.63;4.53;;;24.80;85.80;;;;;;4342657;28;657515;-71
2023/06/11 10:40:19;;;;;;;6.43;4.28;;;24.40;86.20;;;;;;4353464;28;658081;-71
2023/06/11 10:43:15;;;;;;;6.25;4.40;;;23.70;87.50;;;;;;4373778;28;658255;-71
2023/06/11 10:46:06;;;;;;;7.93;4.20;;;23.00;90.50;;;;;;4335465;28;658786;-71
2023/06/11 10:48:54;;;;;;;6.38;4.05;;;22.60;91.60;;;;;;4359583;27;658162;-71
2023/06/11 10:51:41;;;;;;;8.95;4.75;;;23.20;94.70;;;;;;4397241;27;657883;-71
2023/06/11 10:54:32;;;;;;;4.90;3.72;;;23.60;92.10;;;;;;4405245;27;657787;-70
2023/06/11 10:57:21;;;;;;;5.03;3.67;;;23.70;91.40;;;;;;4346391;28;658294;-71
2023/06/11 11:00:11;;;;;;;7.03;3.80;;;24.30;91.70;;;;;;4349802;28;658016;-71
2023/06/11 11:02:59;;;;;;;6.03;4.00;;;24.60;85.50;;;;;;4346938;27;658422;-71
2023/06/11 11:05:46;;;;;;;6.72;3.63;;;24.30;91.00;;;;;;4415117;27;657799;-71
2023/06/11 11:08:33;;;;;;;7.15;4.00;;;24.80;84.10;;;;;;4370713;28;658516;-71
2023/06/11 11:11:21;;;;;;;7.68;3.58;;;25.20;88.00;;;;;;4362577;28;658165;-71
2023/06/11 11:14:08;;;;;;;7.65;3.92;;;25.50;81.30;;;;;;4410638;27;656896;-71
2023/06/11 11:17:00;;;;;;;6.78;4.20;;;25.60;78.70;;;;;;4363493;28;657526;-71
2023/06/11 11:19:47;;;;;;;5.43;3.65;;;25.70;77.50;;;;;;4352907;28;658431;-71
2023/06/11 11:22:35;;;;;;;5.00;3.10;;;26.00;80.70;;;;;;4371192;28;657812;-71
2023/06/11 11:25:23;;;;;;;4.65;3.30;;;26.40;71.00;;;;;;4379298;28;658797;-71
2023/06/11 11:28:12;;;;;;;6.90;3.53;;;26.80;64.00;;;;;;4365961;28;658025;-71
2023/06/11 11:30:59;;;;;;;7.07;4.10;;;26.50;59.20;;;;;;4370761;28;657757;-71
2023/06/11 11:33:48;;;;;;;5.07;3.42;;;26.40;63.40;;;;;;4352957;28;657627;-71
2023/06/11 11:36:36;;;;;;;5.67;3.53;;;26.30;62.10;;;;;;4359707;28;658309;-71
2023/06/11 11:39:23;;;;;;;9.25;3.88;;;26.60;61.90;;;;;;4375348;28;658270;-71
2023/06/11 11:42:11;;;;;;;9.05;3.42;;;26.70;63.40;;;;;;4362455;28;657592;-71
2023/06/11 11:44:58;;;;;;;6.13;3.47;;;26.60;63.00;;;;;;4391411;27;659055;-71
2023/06/11 11:47:46;;;;;;;5.00;3.78;;;26.50;63.50;;;;;;4379471;27;657346;-71
2023/06/11 11:50:35;;;;;;;6.03;3.60;;;26.40;63.20;;;;;;4377124;28;657477;-70
2023/06/11 11:53:23;;;;;;;4.47;3.58;;;26.00;63.30;;;;;;4355775;28;657868;-71
2023/06/11 11:56:11;;;;;;;5.88;3.60;;;26.60;62.50;;;;;;4358228;27;658021;-71
2023/06/11 11:58:58;;;;;;;6.07;3.47;;;27.00;63.20;;;;;;4385850;27;658980;-72
2023/06/11 12:01:54;;;;;;;27.42;14.23;;;26.70;58.60;;;;;;4363578;27;657348;-71
2023/06/11 12:04:43;;;;;;;16.15;8.35;;;26.70;61.00;;;;;;4357453;28;659751;-71
2023/06/11 12:07:32;;;;;;;22.33;10.43;;;26.30;59.20;;;;;;4379057;28;658583;-71
2023/06/11 12:10:21;;;;;;;48.90;32.38;;;25.70;62.00;;;;;;4376610;28;659359;-71
2023/06/11 12:13:08;;;;;;;15.40;9.15;;;24.90;62.50;;;;;;4352166;27;659868;-71
2023/06/11 12:15:55;;;;;;;9.55;6.82;;;24.40;64.10;;;;;;4364960;28;658605;-71
2023/06/11 12:18:42;;;;;;;7.90;3.72;;;24.50;67.10;;;;;;4383743;27;658771;-71
2023/06/11 12:21:32;;;;;;;8.82;3.75;;;24.90;65.20;;;;;;4393683;27;657781;-71
2023/06/11 12:24:20;;;;;;;9.50;4.07;;;25.50;59.70;;;;;;4393685;27;657350;-71
2023/06/11 12:27:08;;;;;;;4.93;3.28;;;25.60;57.30;;;;;;4356598;27;658279;-72
2023/06/11 12:29:55;;;;;;;6.03;3.88;;;26.10;58.60;;;;;;4385960;27;657385;-70
2023/06/11 12:32:42;;;;;;;10.40;3.72;;;26.50;57.80;;;;;;4400793;27;657795;-71
2023/06/11 12:35:30;;;;;;;4.55;3.40;;;26.70;57.40;;;;;;4375106;28;659303;-69
2023/06/11 12:38:18;;;;;;;3.92;2.92;;;26.90;56.70;;;;;;4370337;28;658642;-71
2023/06/11 12:41:07;;;;;;;15.52;4.25;;;26.70;52.80;;;;;;4358771;28;658427;-71
2023/06/11 12:43:54;;;;;;;8.43;5.60;;;25.50;55.30;;;;;;4374172;27;659129;-71
2023/06/11 12:46:42;;;;;;;13.15;6.82;;;25.30;56.00;;;;;;4359782;27;657247;-72
2023/06/11 12:49:31;;;;;;;8.43;4.88;;;25.80;58.10;;;;;;4395682;27;659023;-72
2023/06/11 12:52:18;;;;;;;8.13;3.45;;;25.90;57.40;;;;;;4354182;27;658031;-71
2023/06/11 12:55:06;;;;;;;10.45;5.55;;;25.30;58.20;;;;;;4361909;27;658778;-71
2023/06/11 12:57:54;;;;;;;7.72;4.15;;;25.00;58.30;;;;;;4375257;27;659242;-72
2023/06/11 13:00:42;;;;;;;10.23;4.53;;;24.50;61.20;;;;;;4353984;27;658402;-72
2023/06/11 13:03:30;;;;;;;19.13;10.98;;;24.80;64.50;;;;;;4389526;27;659121;-72
2023/06/11 13:06:17;;;;;;;24.50;6.13;;;25.60;62.00;;;;;;4380172;27;660413;-71
2023/06/11 13:09:04;;;;;;;9.30;4.60;;;26.00;57.80;;;;;;4377803;27;659853;-71
2023/06/11 13:11:52;;;;;;;23.73;4.18;;;25.70;57.70;;;;;;4362241;27;657514;-72
2023/06/11 13:14:40;;;;;;;33.58;13.77;;;25.80;57.50;;;;;;4393775;27;658682;-72
2023/06/11 13:17:27;;;;;;;22.53;5.17;;;26.30;58.10;;;;;;4374304;27;660514;-72
2023/06/11 13:20:16;;;;;;;8.25;5.22;;;26.10;53.60;;;;;;4369852;28;658026;-72
2023/06/11 13:23:03;;;;;;;5.18;3.25;;;26.30;52.60;;;;;;4395054;27;658241;-72
2023/06/11 13:25:51;;;;;;;6.47;3.22;;;26.70;53.30;;;;;;4356910;28;658400;-72
2023/06/11 13:28:39;;;;;;;92.82;52.05;;;26.80;53.30;;;;;;4384183;27;659078;-72
2023/06/11 13:31:27;;;;;;;18.10;10.07;;;27.40;54.50;;;;;;4371435;27;659669;-72
2023/06/11 13:34:15;;;;;;;10.02;5.25;;;26.80;52.50;;;;;;4377025;28;659989;-72
2023/06/11 13:37:02;;;;;;;6.05;3.63;;;25.90;54.20;;;;;;4351787;27;659886;-73
2023/06/11 13:39:49;;;;;;;5.32;3.40;;;25.80;55.70;;;;;;4371328;28;658036;-73
2023/06/11 13:42:36;;;;;;;5.22;3.33;;;26.10;50.40;;;;;;4361187;28;657800;-73
2023/06/11 13:45:23;;;;;;;4.90;3.22;;;26.50;53.20;;;;;;4378916;28;657783;-71
2023/06/11 13:48:16;;;;;;;10.52;3.40;;;26.30;52.60;;;;;;4361153;27;658137;-73
2023/06/11 13:51:03;;;;;;;17.25;3.88;;;26.10;54.50;;;;;;4343077;28;659060;-72
2023/06/11 13:53:50;;;;;;;11.43;3.58;;;26.70;55.20;;;;;;4361665;27;661758;-73
2023/06/11 13:56:38;;;;;;;6.28;3.30;;;27.10;52.60;;;;;;4380545;28;660556;-72
2023/06/11 13:59:25;;;;;;;6.00;3.40;;;26.70;53.50;;;;;;4380655;28;658001;-72
2023/06/11 14:02:12;;;;;;;9.27;3.40;;;27.10;51.60;;;;;;4378440;28;658355;-74
2023/06/11 14:05:02;;;;;;;6.00;3.17;;;27.20;48.70;;;;;;4380501;28;657835;-73
2023/06/11 14:07:49;;;;;;;7.75;3.40;;;27.20;50.70;;;;;;4375142;28;657846;-73
2023/06/11 14:10:36;;;;;;;11.00;3.30;;;27.10;46.30;;;;;;4354888;28;657681;-72
2023/06/11 14:13:24;;;;;;;7.45;3.50;;;26.90;47.40;;;;;;4362886;28;659524;-73